sensor_id;sensor_type;location;lat;lon;timestamp;P1;durP1;ratioP1;P2;durP2;ratioP2
3274;SDS011;1649;53.672;10.064;2022-07-23T00:00:13;5.80;;;2.70;;
3274;SDS011;1649;53.672;10.064;2022-07-23T00:02:39;7.27;;;2.77;;
3274;SDS011;1649;53.672;10.064;2022-07-23T00:05:05;5.37;;;2.40;;
3274;SDS011;1649;53.672;10.064;2022-07-23T00:07:31;7.03;;;2.50;;
3274;SDS011;1649;53.672;10.064;2022-07-23T00:09:56;7.67;;;2.50;;
3274;SDS011;1649;53.672;10.064;2022-07-23T00:12:22;5.70;;;2.40;;
3274;SDS011;1649;53.672;10.064;2022-07-23T00:14:47;4.93;;;2.37;;
3274;SDS011;1649;53.672;10.064;2022-07-23T00:17:13;5.93;;;2.23;;
3274;SDS011;1649;53.672;10.064;2022-07-23T00:19:38;5.93;;;2.33;;
3274;SDS011;1649;53.672;10.064;2022-07-23T00:22:04;7.90;;;2.70;;
3274;SDS011;1649;53.672;10.064;2022-07-23T00:24:29;7.73;;;2.60;;
3274;SDS011;1649;53.672;10.064;2022-07-23T00:26:55;5.00;;;2.33;;
3274;SDS011;1649;53.672;10.064;2022-07-23T00:29:20;4.60;;;2.20;;
3274;SDS011;1649;53.672;10.064;2022-07-23T00:31:46;7.27;;;2.30;;
3274;SDS011;1649;53.672;10.064;2022-07-23T00:34:11;5.03;;;2.20;;
3274;SDS011;1649;53.672;10.064;2022-07-23T00:36:37;6.87;;;2.70;;
3274;SDS011;1649;53.672;10.064;2022-07-23T00:39:03;5.03;;;1.93;;
3274;SDS011;1649;53.672;10.064;2022-07-23T00:41:28;6.97;;;2.30;;
3274;SDS011;1649;53.672;10.064;2022-07-23T00:43:54;5.63;;;2.27;;
3274;SDS011;1649;53.672;10.064;2022-07-23T00:46:20;5.30;;;2.33;;
3274;SDS011;1649;53.672;10.064;2022-07-23T00:48:46;5.53;;;2.57;;
3274;SDS011;1649;53.672;10.064;2022-07-23T00:51:12;7.50;;;2.60;;
3274;SDS011;1649;53.672;10.064;2022-07-23T00:53:37;6.00;;;2.60;;
3274;SDS011;1649;53.672;10.064;2022-07-23T00:56:03;9.20;;;2.40;;
3274;SDS011;1649;53.672;10.064;2022-07-23T00:58:30;6.60;;;2.40;;
3274;SDS011;1649;53.672;10.064;2022-07-23T01:00:56;9.87;;;2.17;;
3274;SDS011;1649;53.672;10.064;2022-07-23T01:03:21;6.00;;;2.10;;
3274;SDS011;1649;53.672;10.064;2022-07-23T01:05:47;5.43;;;2.20;;
3274;SDS011;1649;53.672;10.064;2022-07-23T01:08:13;7.50;;;2.30;;
3274;SDS011;1649;53.672;10.064;2022-07-23T01:10:38;5.60;;;2.40;;
3274;SDS011;1649;53.672;10.064;2022-07-23T01:13:05;6.10;;;2.50;;
3274;SDS011;1649;53.672;10.064;2022-07-23T01:15:33;4.87;;;2.30;;
3274;SDS011;1649;53.672;10.064;2022-07-23T01:17:59;6.83;;;2.63;;
3274;SDS011;1649;53.672;10.064;2022-07-23T01:20:25;4.73;;;2.10;;
3274;SDS011;1649;53.672;10.064;2022-07-23T01:22:51;3.90;;;1.97;;
3274;SDS011;1649;53.672;10.064;2022-07-23T01:25:18;5.93;;;2.20;;
3274;SDS011;1649;53.672;10.064;2022-07-23T01:27:43;6.73;;;2.37;;
3274;SDS011;1649;53.672;10.064;2022-07-23T01:30:09;6.00;;;2.50;;
3274;SDS011;1649;53.672;10.064;2022-07-23T01:32:35;6.90;;;2.33;;
3274;SDS011;1649;53.672;10.064;2022-07-23T01:35:01;5.60;;;1.90;;
3274;SDS011;1649;53.672;10.064;2022-07-23T01:37:27;5.70;;;2.40;;
3274;SDS011;1649;53.672;10.064;2022-07-23T01:39:52;4.80;;;2.30;;
3274;SDS011;1649;53.672;10.064;2022-07-23T01:42:18;5.70;;;2.60;;
3274;SDS011;1649;53.672;10.064;2022-07-23T01:44:43;7.03;;;2.20;;
3274;SDS011;1649;53.672;10.064;2022-07-23T01:47:09;5.53;;;2.33;;
3274;SDS011;1649;53.672;10.064;2022-07-23T01:49:34;6.07;;;2.30;;
3274;SDS011;1649;53.672;10.064;2022-07-23T01:52:00;5.60;;;2.40;;
3274;SDS011;1649;53.672;10.064;2022-07-23T01:54:29;5.70;;;2.30;;
3274;SDS011;1649;53.672;10.064;2022-07-23T01:56:56;5.43;;;2.23;;
3274;SDS011;1649;53.672;10.064;2022-07-23T01:59:22;8.33;;;2.37;;
3274;SDS011;1649;53.672;10.064;2022-07-23T02:01:48;4.40;;;2.37;;
3274;SDS011;1649;53.672;10.064;2022-07-23T02:04:17;3.97;;;1.87;;
3274;SDS011;1649;53.672;10.064;2022-07-23T02:06:43;7.07;;;3.37;;
3274;SDS011;1649;53.672;10.064;2022-07-23T02:09:09;8.97;;;2.43;;
3274;SDS011;1649;53.672;10.064;2022-07-23T02:11:34;5.57;;;2.80;;
3274;SDS011;1649;53.672;10.064;2022-07-23T02:14:00;6.10;;;2.27;;
3274;SDS011;1649;53.672;10.064;2022-07-23T02:16:26;5.03;;;2.40;;
3274;SDS011;1649;53.672;10.064;2022-07-23T02:18:51;6.33;;;2.47;;
3274;SDS011;1649;53.672;10.064;2022-07-23T02:21:16;4.43;;;2.20;;
3274;SDS011;1649;53.672;10.064;2022-07-23T02:23:42;4.60;;;2.20;;
3274;SDS011;1649;53.672;10.064;2022-07-23T02:26:07;8.60;;;2.50;;
3274;SDS011;1649;53.672;10.064;2022-07-23T02:28:33;6.07;;;2.70;;
3274;SDS011;1649;53.672;10.064;2022-07-23T02:30:58;4.63;;;2.30;;
3274;SDS011;1649;53.672;10.064;2022-07-23T02:33:24;5.00;;;2.27;;
3274;SDS011;1649;53.672;10.064;2022-07-23T02:35:49;4.67;;;2.30;;
3274;SDS011;1649;53.672;10.064;2022-07-23T02:38:15;5.47;;;2.50;;
3274;SDS011;1649;53.672;10.064;2022-07-23T02:40:41;4.63;;;2.20;;
3274;SDS011;1649;53.672;10.064;2022-07-23T02:43:06;6.33;;;2.40;;
3274;SDS011;1649;53.672;10.064;2022-07-23T02:45:32;5.40;;;2.30;;
3274;SDS011;1649;53.672;10.064;2022-07-23T02:47:57;5.03;;;2.10;;
3274;SDS011;1649;53.672;10.064;2022-07-23T02:50:23;6.37;;;2.80;;
3274;SDS011;1649;53.672;10.064;2022-07-23T02:52:48;7.40;;;2.33;;
3274;SDS011;1649;53.672;10.064;2022-07-23T02:55:14;5.00;;;2.17;;
3274;SDS011;1649;53.672;10.064;2022-07-23T02:57:39;5.53;;;2.50;;
3274;SDS011;1649;53.672;10.064;2022-07-23T03:00:05;6.23;;;2.80;;
3274;SDS011;1649;53.672;10.064;2022-07-23T03:02:32;6.20;;;2.70;;
3274;SDS011;1649;53.672;10.064;2022-07-23T03:04:57;5.90;;;2.20;;
3274;SDS011;1649;53.672;10.064;2022-07-23T03:07:23;6.70;;;2.37;;
3274;SDS011;1649;53.672;10.064;2022-07-23T03:09:48;5.37;;;2.17;;
3274;SDS011;1649;53.672;10.064;2022-07-23T03:12:14;5.17;;;2.10;;
3274;SDS011;1649;53.672;10.064;2022-07-23T03:14:40;7.00;;;2.47;;
3274;SDS011;1649;53.672;10.064;2022-07-23T03:17:05;4.63;;;2.13;;
3274;SDS011;1649;53.672;10.064;2022-07-23T03:19:31;5.83;;;2.47;;
3274;SDS011;1649;53.672;10.064;2022-07-23T03:21:56;4.90;;;2.20;;
3274;SDS011;1649;53.672;10.064;2022-07-23T03:24:22;4.87;;;2.10;;
3274;SDS011;1649;53.672;10.064;2022-07-23T03:27:07;8.50;;;2.53;;
3274;SDS011;1649;53.672;10.064;2022-07-23T03:29:33;5.20;;;2.30;;
3274;SDS011;1649;53.672;10.064;2022-07-23T03:31:58;6.03;;;2.63;;
3274;SDS011;1649;53.672;10.064;2022-07-23T03:34:24;6.10;;;2.43;;
3274;SDS011;1649;53.672;10.064;2022-07-23T03:36:49;6.00;;;2.40;;
3274;SDS011;1649;53.672;10.064;2022-07-23T03:39:15;8.67;;;2.80;;
3274;SDS011;1649;53.672;10.064;2022-07-23T03:41:41;5.50;;;2.33;;
3274;SDS011;1649;53.672;10.064;2022-07-23T03:44:06;5.77;;;2.47;;
3274;SDS011;1649;53.672;10.064;2022-07-23T03:46:32;6.87;;;2.40;;
3274;SDS011;1649;53.672;10.064;2022-07-23T03:48:57;5.23;;;2.30;;
3274;SDS011;1649;53.672;10.064;2022-07-23T03:51:23;6.33;;;2.50;;
3274;SDS011;1649;53.672;10.064;2022-07-23T03:53:48;6.83;;;2.40;;
3274;SDS011;1649;53.672;10.064;2022-07-23T03:56:14;5.37;;;2.37;;
3274;SDS011;1649;53.672;10.064;2022-07-23T03:58:39;5.33;;;2.30;;
3274;SDS011;1649;53.672;10.064;2022-07-23T04:01:04;10.40;;;2.53;;
3274;SDS011;1649;53.672;10.064;2022-07-23T04:03:30;6.17;;;2.50;;
3274;SDS011;1649;53.672;10.064;2022-07-23T04:05:56;7.20;;;2.27;;
3274;SDS011;1649;53.672;10.064;2022-07-23T04:08:21;6.83;;;2.60;;
3274;SDS011;1649;53.672;10.064;2022-07-23T04:10:47;5.27;;;2.17;;
3274;SDS011;1649;53.672;10.064;2022-07-23T04:13:12;5.83;;;2.37;;
3274;SDS011;1649;53.672;10.064;2022-07-23T04:15:38;5.00;;;2.50;;
3274;SDS011;1649;53.672;10.064;2022-07-23T04:18:03;4.83;;;2.30;;
3274;SDS011;1649;53.672;10.064;2022-07-23T04:20:29;5.90;;;2.30;;
3274;SDS011;1649;53.672;10.064;2022-07-23T04:22:54;4.80;;;2.47;;
3274;SDS011;1649;53.672;10.064;2022-07-23T04:25:20;5.13;;;2.30;;
3274;SDS011;1649;53.672;10.064;2022-07-23T04:27:45;7.17;;;2.60;;
3274;SDS011;1649;53.672;10.064;2022-07-23T04:30:11;4.90;;;2.00;;
3274;SDS011;1649;53.672;10.064;2022-07-23T04:32:36;5.50;;;2.03;;
3274;SDS011;1649;53.672;10.064;2022-07-23T04:35:02;8.27;;;2.27;;
3274;SDS011;1649;53.672;10.064;2022-07-23T04:37:28;4.50;;;2.00;;
3274;SDS011;1649;53.672;10.064;2022-07-23T04:39:53;4.77;;;2.13;;
3274;SDS011;1649;53.672;10.064;2022-07-23T04:42:18;5.23;;;1.80;;
3274;SDS011;1649;53.672;10.064;2022-07-23T04:44:44;6.57;;;2.30;;
3274;SDS011;1649;53.672;10.064;2022-07-23T04:47:09;5.20;;;2.00;;
3274;SDS011;1649;53.672;10.064;2022-07-23T04:49:35;4.60;;;1.70;;
3274;SDS011;1649;53.672;10.064;2022-07-23T04:52:01;5.50;;;1.93;;
3274;SDS011;1649;53.672;10.064;2022-07-23T04:54:27;5.73;;;2.13;;
3274;SDS011;1649;53.672;10.064;2022-07-23T04:56:52;6.30;;;1.93;;
3274;SDS011;1649;53.672;10.064;2022-07-23T04:59:18;5.37;;;1.80;;
3274;SDS011;1649;53.672;10.064;2022-07-23T05:01:43;6.47;;;2.17;;
3274;SDS011;1649;53.672;10.064;2022-07-23T05:04:09;7.77;;;2.60;;
3274;SDS011;1649;53.672;10.064;2022-07-23T05:06:35;5.37;;;2.03;;
3274;SDS011;1649;53.672;10.064;2022-07-23T05:09:00;6.43;;;2.00;;
3274;SDS011;1649;53.672;10.064;2022-07-23T05:11:26;5.10;;;1.90;;
3274;SDS011;1649;53.672;10.064;2022-07-23T05:13:51;4.90;;;2.00;;
3274;SDS011;1649;53.672;10.064;2022-07-23T05:16:17;6.33;;;2.43;;
3274;SDS011;1649;53.672;10.064;2022-07-23T05:18:42;5.87;;;2.17;;
3274;SDS011;1649;53.672;10.064;2022-07-23T05:21:07;5.27;;;2.30;;
3274;SDS011;1649;53.672;10.064;2022-07-23T05:23:33;6.53;;;1.77;;
3274;SDS011;1649;53.672;10.064;2022-07-23T05:25:58;4.00;;;1.50;;
3274;SDS011;1649;53.672;10.064;2022-07-23T05:28:24;4.43;;;1.87;;
3274;SDS011;1649;53.672;10.064;2022-07-23T05:30:50;4.70;;;1.80;;
3274;SDS011;1649;53.672;10.064;2022-07-23T05:33:17;4.33;;;1.77;;
3274;SDS011;1649;53.672;10.064;2022-07-23T05:35:44;4.37;;;1.97;;
3274;SDS011;1649;53.672;10.064;2022-07-23T05:38:09;5.80;;;2.20;;
3274;SDS011;1649;53.672;10.064;2022-07-23T05:40:35;3.90;;;1.70;;
3274;SDS011;1649;53.672;10.064;2022-07-23T05:43:00;5.70;;;1.47;;
3274;SDS011;1649;53.672;10.064;2022-07-23T05:45:26;4.00;;;1.90;;
3274;SDS011;1649;53.672;10.064;2022-07-23T05:47:51;4.83;;;1.60;;
3274;SDS011;1649;53.672;10.064;2022-07-23T05:50:17;4.27;;;1.60;;
3274;SDS011;1649;53.672;10.064;2022-07-23T05:52:42;3.73;;;1.60;;
3274;SDS011;1649;53.672;10.064;2022-07-23T05:55:09;4.00;;;1.43;;
3274;SDS011;1649;53.672;10.064;2022-07-23T05:57:35;5.27;;;1.37;;
3274;SDS011;1649;53.672;10.064;2022-07-23T06:00:01;4.50;;;1.40;;
3274;SDS011;1649;53.672;10.064;2022-07-23T06:02:28;3.60;;;1.30;;
3274;SDS011;1649;53.672;10.064;2022-07-23T06:04:54;4.20;;;1.23;;
3274;SDS011;1649;53.672;10.064;2022-07-23T06:07:20;3.80;;;1.30;;
3274;SDS011;1649;53.672;10.064;2022-07-23T06:09:45;4.03;;;1.50;;
3274;SDS011;1649;53.672;10.064;2022-07-23T06:12:11;4.63;;;1.43;;
3274;SDS011;1649;53.672;10.064;2022-07-23T06:14:37;4.23;;;1.60;;
3274;SDS011;1649;53.672;10.064;2022-07-23T06:17:03;4.70;;;1.57;;
3274;SDS011;1649;53.672;10.064;2022-07-23T06:19:28;5.30;;;1.50;;
3274;SDS011;1649;53.672;10.064;2022-07-23T06:21:54;5.33;;;1.67;;
3274;SDS011;1649;53.672;10.064;2022-07-23T06:24:19;4.47;;;1.70;;
3274;SDS011;1649;53.672;10.064;2022-07-23T06:26:44;4.00;;;1.60;;
3274;SDS011;1649;53.672;10.064;2022-07-23T06:29:10;3.80;;;1.57;;
3274;SDS011;1649;53.672;10.064;2022-07-23T06:31:36;4.10;;;1.60;;
3274;SDS011;1649;53.672;10.064;2022-07-23T06:34:02;5.20;;;1.70;;
3274;SDS011;1649;53.672;10.064;2022-07-23T06:36:28;4.20;;;1.33;;
3274;SDS011;1649;53.672;10.064;2022-07-23T06:38:53;4.37;;;1.40;;
3274;SDS011;1649;53.672;10.064;2022-07-23T06:41:19;4.97;;;1.50;;
3274;SDS011;1649;53.672;10.064;2022-07-23T06:43:44;5.20;;;1.30;;
3274;SDS011;1649;53.672;10.064;2022-07-23T06:46:09;4.10;;;1.27;;
3274;SDS011;1649;53.672;10.064;2022-07-23T06:48:35;8.10;;;2.23;;
3274;SDS011;1649;53.672;10.064;2022-07-23T06:51:01;7.67;;;1.37;;
3274;SDS011;1649;53.672;10.064;2022-07-23T06:53:27;5.07;;;1.40;;
3274;SDS011;1649;53.672;10.064;2022-07-23T06:55:53;4.37;;;1.37;;
3274;SDS011;1649;53.672;10.064;2022-07-23T06:58:18;4.53;;;1.40;;
3274;SDS011;1649;53.672;10.064;2022-07-23T07:00:44;4.17;;;1.30;;
3274;SDS011;1649;53.672;10.064;2022-07-23T07:03:09;4.77;;;1.40;;
3274;SDS011;1649;53.672;10.064;2022-07-23T07:05:35;5.97;;;1.70;;
3274;SDS011;1649;53.672;10.064;2022-07-23T07:08:01;4.67;;;1.50;;
3274;SDS011;1649;53.672;10.064;2022-07-23T07:10:26;4.40;;;1.30;;
3274;SDS011;1649;53.672;10.064;2022-07-23T07:12:52;4.03;;;1.23;;
3274;SDS011;1649;53.672;10.064;2022-07-23T07:15:17;4.27;;;1.20;;
3274;SDS011;1649;53.672;10.064;2022-07-23T07:17:43;4.33;;;1.30;;
3274;SDS011;1649;53.672;10.064;2022-07-23T07:20:08;6.60;;;1.20;;
3274;SDS011;1649;53.672;10.064;2022-07-23T07:22:34;3.93;;;1.10;;
3274;SDS011;1649;53.672;10.064;2022-07-23T07:25:00;4.07;;;1.20;;
3274;SDS011;1649;53.672;10.064;2022-07-23T07:27:26;4.00;;;1.10;;
3274;SDS011;1649;53.672;10.064;2022-07-23T07:29:51;3.80;;;1.40;;
3274;SDS011;1649;53.672;10.064;2022-07-23T07:32:17;6.50;;;1.67;;
3274;SDS011;1649;53.672;10.064;2022-07-23T07:34:42;4.40;;;1.33;;
3274;SDS011;1649;53.672;10.064;2022-07-23T07:37:08;5.53;;;1.43;;
3274;SDS011;1649;53.672;10.064;2022-07-23T07:39:33;4.13;;;1.13;;
3274;SDS011;1649;53.672;10.064;2022-07-23T07:41:59;3.80;;;1.37;;
3274;SDS011;1649;53.672;10.064;2022-07-23T07:44:24;4.53;;;1.30;;
3274;SDS011;1649;53.672;10.064;2022-07-23T07:46:50;4.07;;;1.17;;
3274;SDS011;1649;53.672;10.064;2022-07-23T07:49:15;5.40;;;1.27;;
3274;SDS011;1649;53.672;10.064;2022-07-23T07:51:44;4.70;;;1.00;;
3274;SDS011;1649;53.672;10.064;2022-07-23T07:54:10;3.40;;;1.00;;
3274;SDS011;1649;53.672;10.064;2022-07-23T07:56:35;3.10;;;1.00;;
3274;SDS011;1649;53.672;10.064;2022-07-23T07:59:01;4.17;;;1.00;;
3274;SDS011;1649;53.672;10.064;2022-07-23T08:01:26;3.93;;;1.10;;
3274;SDS011;1649;53.672;10.064;2022-07-23T08:03:52;4.13;;;1.00;;
3274;SDS011;1649;53.672;10.064;2022-07-23T08:06:17;3.37;;;1.00;;
3274;SDS011;1649;53.672;10.064;2022-07-23T08:08:43;5.87;;;1.20;;
3274;SDS011;1649;53.672;10.064;2022-07-23T08:11:08;4.20;;;1.00;;
3274;SDS011;1649;53.672;10.064;2022-07-23T08:13:34;3.50;;;1.10;;
3274;SDS011;1649;53.672;10.064;2022-07-23T08:15:59;4.60;;;1.03;;
3274;SDS011;1649;53.672;10.064;2022-07-23T08:18:25;4.60;;;1.10;;
3274;SDS011;1649;53.672;10.064;2022-07-23T08:20:50;4.63;;;1.20;;
3274;SDS011;1649;53.672;10.064;2022-07-23T08:23:16;4.43;;;1.23;;
3274;SDS011;1649;53.672;10.064;2022-07-23T08:25:44;4.00;;;1.20;;
3274;SDS011;1649;53.672;10.064;2022-07-23T08:28:10;4.10;;;1.23;;
3274;SDS011;1649;53.672;10.064;2022-07-23T08:30:38;4.53;;;1.33;;
3274;SDS011;1649;53.672;10.064;2022-07-23T08:33:05;4.80;;;1.13;;
3274;SDS011;1649;53.672;10.064;2022-07-23T08:35:36;5.67;;;1.30;;
3274;SDS011;1649;53.672;10.064;2022-07-23T08:38:06;4.43;;;1.37;;
3274;SDS011;1649;53.672;10.064;2022-07-23T08:40:34;4.37;;;1.30;;
3274;SDS011;1649;53.672;10.064;2022-07-23T08:43:02;4.20;;;1.13;;
3274;SDS011;1649;53.672;10.064;2022-07-23T08:45:30;6.70;;;1.37;;
3274;SDS011;1649;53.672;10.064;2022-07-23T08:48:00;3.60;;;1.10;;
3274;SDS011;1649;53.672;10.064;2022-07-23T08:50:25;3.90;;;1.00;;
3274;SDS011;1649;53.672;10.064;2022-07-23T08:52:51;3.97;;;1.30;;
3274;SDS011;1649;53.672;10.064;2022-07-23T08:55:19;7.33;;;1.30;;
3274;SDS011;1649;53.672;10.064;2022-07-23T08:57:50;3.90;;;1.10;;
3274;SDS011;1649;53.672;10.064;2022-07-23T09:00:17;5.47;;;1.20;;
3274;SDS011;1649;53.672;10.064;2022-07-23T09:02:44;3.93;;;1.30;;
3274;SDS011;1649;53.672;10.064;2022-07-23T09:05:10;4.70;;;1.10;;
3274;SDS011;1649;53.672;10.064;2022-07-23T09:07:37;5.83;;;1.20;;
3274;SDS011;1649;53.672;10.064;2022-07-23T09:12:33;3.67;;;1.07;;
3274;SDS011;1649;53.672;10.064;2022-07-23T09:15:03;3.57;;;1.00;;
3274;SDS011;1649;53.672;10.064;2022-07-23T09:17:36;3.57;;;1.00;;
3274;SDS011;1649;53.672;10.064;2022-07-23T09:20:10;3.80;;;1.10;;
3274;SDS011;1649;53.672;10.064;2022-07-23T09:22:41;6.30;;;1.30;;
3274;SDS011;1649;53.672;10.064;2022-07-23T09:25:12;4.17;;;1.00;;
3274;SDS011;1649;53.672;10.064;2022-07-23T09:27:55;4.43;;;1.00;;
3274;SDS011;1649;53.672;10.064;2022-07-23T09:30:24;3.73;;;1.00;;
3274;SDS011;1649;53.672;10.064;2022-07-23T09:33:08;4.30;;;1.10;;
3274;SDS011;1649;53.672;10.064;2022-07-23T09:35:45;3.10;;;0.90;;
3274;SDS011;1649;53.672;10.064;2022-07-23T09:38:14;3.23;;;1.03;;
3274;SDS011;1649;53.672;10.064;2022-07-23T09:40:41;3.70;;;0.97;;
3274;SDS011;1649;53.672;10.064;2022-07-23T09:43:07;3.10;;;0.90;;
3274;SDS011;1649;53.672;10.064;2022-07-23T09:45:33;3.17;;;0.90;;
3274;SDS011;1649;53.672;10.064;2022-07-23T09:50:37;5.87;;;1.07;;
3274;SDS011;1649;53.672;10.064;2022-07-23T09:53:03;3.67;;;1.07;;
3274;SDS011;1649;53.672;10.064;2022-07-23T09:55:32;3.47;;;1.00;;
3274;SDS011;1649;53.672;10.064;2022-07-23T09:58:01;4.50;;;1.00;;
3274;SDS011;1649;53.672;10.064;2022-07-23T10:00:28;4.93;;;1.50;;
3274;SDS011;1649;53.672;10.064;2022-07-23T10:02:54;4.43;;;1.00;;
3274;SDS011;1649;53.672;10.064;2022-07-23T10:05:20;3.10;;;0.90;;
3274;SDS011;1649;53.672;10.064;2022-07-23T10:07:46;3.47;;;1.10;;
3274;SDS011;1649;53.672;10.064;2022-07-23T10:10:11;2.90;;;0.80;;
3274;SDS011;1649;53.672;10.064;2022-07-23T10:12:38;3.83;;;0.90;;
3274;SDS011;1649;53.672;10.064;2022-07-23T10:15:16;3.07;;;0.90;;
3274;SDS011;1649;53.672;10.064;2022-07-23T10:17:42;2.90;;;0.97;;
3274;SDS011;1649;53.672;10.064;2022-07-23T10:20:08;3.93;;;0.97;;
3274;SDS011;1649;53.672;10.064;2022-07-23T10:22:35;3.17;;;1.10;;
3274;SDS011;1649;53.672;10.064;2022-07-23T10:25:08;3.10;;;1.00;;
3274;SDS011;1649;53.672;10.064;2022-07-23T10:28:04;3.30;;;0.90;;
3274;SDS011;1649;53.672;10.064;2022-07-23T10:30:43;4.70;;;1.20;;
3274;SDS011;1649;53.672;10.064;2022-07-23T10:33:29;3.00;;;1.00;;
3274;SDS011;1649;53.672;10.064;2022-07-23T10:36:18;3.77;;;1.10;;
3274;SDS011;1649;53.672;10.064;2022-07-23T10:39:06;3.40;;;1.10;;
3274;SDS011;1649;53.672;10.064;2022-07-23T10:41:39;3.40;;;1.07;;
3274;SDS011;1649;53.672;10.064;2022-07-23T10:44:13;4.70;;;1.20;;
3274;SDS011;1649;53.672;10.064;2022-07-23T10:46:55;3.90;;;1.00;;
3274;SDS011;1649;53.672;10.064;2022-07-23T10:49:41;3.50;;;1.10;;
3274;SDS011;1649;53.672;10.064;2022-07-23T10:54:45;5.30;;;1.13;;
3274;SDS011;1649;53.672;10.064;2022-07-23T10:57:15;3.77;;;1.20;;
3274;SDS011;1649;53.672;10.064;2022-07-23T11:00:08;3.70;;;1.00;;
3274;SDS011;1649;53.672;10.064;2022-07-23T11:02:38;3.47;;;1.10;;
3274;SDS011;1649;53.672;10.064;2022-07-23T11:05:05;3.73;;;1.00;;
3274;SDS011;1649;53.672;10.064;2022-07-23T11:07:36;3.37;;;1.03;;
3274;SDS011;1649;53.672;10.064;2022-07-23T11:13:25;3.20;;;1.03;;
3274;SDS011;1649;53.672;10.064;2022-07-23T11:24:05;3.47;;;0.80;;
3274;SDS011;1649;53.672;10.064;2022-07-23T11:37:04;3.50;;;0.90;;
3274;SDS011;1649;53.672;10.064;2022-07-23T11:39:37;5.33;;;1.03;;
3274;SDS011;1649;53.672;10.064;2022-07-23T11:42:04;5.00;;;1.10;;
3274;SDS011;1649;53.672;10.064;2022-07-23T11:44:37;3.47;;;1.20;;
3274;SDS011;1649;53.672;10.064;2022-07-23T11:47:05;4.53;;;0.90;;
3274;SDS011;1649;53.672;10.064;2022-07-23T11:49:37;5.73;;;1.20;;
3274;SDS011;1649;53.672;10.064;2022-07-23T11:54:48;3.13;;;0.80;;
3274;SDS011;1649;53.672;10.064;2022-07-23T11:57:14;3.83;;;0.80;;
3274;SDS011;1649;53.672;10.064;2022-07-23T11:59:40;3.20;;;1.00;;
3274;SDS011;1649;53.672;10.064;2022-07-23T12:02:07;4.20;;;0.90;;
3274;SDS011;1649;53.672;10.064;2022-07-23T12:04:42;4.27;;;0.90;;
3274;SDS011;1649;53.672;10.064;2022-07-23T12:09:59;5.73;;;1.20;;
3274;SDS011;1649;53.672;10.064;2022-07-23T12:12:45;5.20;;;1.10;;
3274;SDS011;1649;53.672;10.064;2022-07-23T12:15:16;3.67;;;1.03;;
3274;SDS011;1649;53.672;10.064;2022-07-23T12:17:44;3.77;;;1.00;;
3274;SDS011;1649;53.672;10.064;2022-07-23T12:20:13;4.80;;;1.07;;
3274;SDS011;1649;53.672;10.064;2022-07-23T12:23:00;4.40;;;1.20;;
3274;SDS011;1649;53.672;10.064;2022-07-23T12:25:28;3.57;;;1.17;;
3274;SDS011;1649;53.672;10.064;2022-07-23T12:28:00;3.53;;;0.90;;
3274;SDS011;1649;53.672;10.064;2022-07-23T12:33:12;3.53;;;1.00;;
3274;SDS011;1649;53.672;10.064;2022-07-23T12:36:02;4.60;;;0.93;;
3274;SDS011;1649;53.672;10.064;2022-07-23T12:38:36;3.07;;;0.97;;
3274;SDS011;1649;53.672;10.064;2022-07-23T12:41:06;3.40;;;0.87;;
3274;SDS011;1649;53.672;10.064;2022-07-23T12:43:36;3.00;;;0.80;;
3274;SDS011;1649;53.672;10.064;2022-07-23T12:46:04;4.10;;;1.10;;
3274;SDS011;1649;53.672;10.064;2022-07-23T12:51:15;3.13;;;1.20;;
3274;SDS011;1649;53.672;10.064;2022-07-23T12:53:49;4.17;;;1.00;;
3274;SDS011;1649;53.672;10.064;2022-07-23T12:56:29;3.20;;;0.90;;
3274;SDS011;1649;53.672;10.064;2022-07-23T13:01:29;5.20;;;0.80;;
3274;SDS011;1649;53.672;10.064;2022-07-23T13:04:13;3.80;;;1.00;;
3274;SDS011;1649;53.672;10.064;2022-07-23T13:06:41;3.33;;;0.80;;
3274;SDS011;1649;53.672;10.064;2022-07-23T13:09:17;4.50;;;1.20;;
3274;SDS011;1649;53.672;10.064;2022-07-23T13:11:48;3.30;;;0.73;;
3274;SDS011;1649;53.672;10.064;2022-07-23T13:14:16;3.80;;;0.90;;
3274;SDS011;1649;53.672;10.064;2022-07-23T13:16:44;3.93;;;1.00;;
3274;SDS011;1649;53.672;10.064;2022-07-23T13:19:11;2.90;;;0.87;;
3274;SDS011;1649;53.672;10.064;2022-07-23T13:21:37;3.53;;;1.00;;
3274;SDS011;1649;53.672;10.064;2022-07-23T13:24:03;3.83;;;1.30;;
3274;SDS011;1649;53.672;10.064;2022-07-23T13:26:33;4.47;;;1.30;;
3274;SDS011;1649;53.672;10.064;2022-07-23T13:28:59;3.30;;;1.00;;
3274;SDS011;1649;53.672;10.064;2022-07-23T13:31:25;3.43;;;1.00;;
3274;SDS011;1649;53.672;10.064;2022-07-23T13:33:51;4.70;;;1.00;;
3274;SDS011;1649;53.672;10.064;2022-07-23T13:36:16;3.40;;;0.90;;
3274;SDS011;1649;53.672;10.064;2022-07-23T13:38:42;3.70;;;0.90;;
3274;SDS011;1649;53.672;10.064;2022-07-23T13:41:08;3.67;;;1.00;;
3274;SDS011;1649;53.672;10.064;2022-07-23T13:43:33;4.17;;;1.07;;
3274;SDS011;1649;53.672;10.064;2022-07-23T13:45:59;5.23;;;1.37;;
3274;SDS011;1649;53.672;10.064;2022-07-23T13:48:24;5.93;;;1.40;;
3274;SDS011;1649;53.672;10.064;2022-07-23T13:50:50;3.93;;;1.13;;
3274;SDS011;1649;53.672;10.064;2022-07-23T13:53:17;4.30;;;1.27;;
3274;SDS011;1649;53.672;10.064;2022-07-23T13:55:45;3.43;;;1.10;;
3274;SDS011;1649;53.672;10.064;2022-07-23T13:58:11;3.37;;;1.13;;
3274;SDS011;1649;53.672;10.064;2022-07-23T14:00:38;4.00;;;1.10;;
3274;SDS011;1649;53.672;10.064;2022-07-23T14:03:06;3.20;;;1.03;;
3274;SDS011;1649;53.672;10.064;2022-07-23T14:05:31;4.60;;;1.23;;
3274;SDS011;1649;53.672;10.064;2022-07-23T14:07:57;4.10;;;1.07;;
3274;SDS011;1649;53.672;10.064;2022-07-23T14:10:23;3.70;;;1.10;;
3274;SDS011;1649;53.672;10.064;2022-07-23T14:12:49;4.60;;;0.93;;
3274;SDS011;1649;53.672;10.064;2022-07-23T14:15:16;3.40;;;0.90;;
3274;SDS011;1649;53.672;10.064;2022-07-23T14:17:43;3.30;;;1.00;;
3274;SDS011;1649;53.672;10.064;2022-07-23T14:20:10;4.17;;;1.10;;
3274;SDS011;1649;53.672;10.064;2022-07-23T14:22:36;5.53;;;1.00;;
3274;SDS011;1649;53.672;10.064;2022-07-23T14:25:02;4.67;;;1.10;;
3274;SDS011;1649;53.672;10.064;2022-07-23T14:27:29;3.63;;;1.10;;
3274;SDS011;1649;53.672;10.064;2022-07-23T14:29:55;4.20;;;1.00;;
3274;SDS011;1649;53.672;10.064;2022-07-23T14:32:22;4.40;;;1.13;;
3274;SDS011;1649;53.672;10.064;2022-07-23T14:34:48;3.20;;;0.87;;
3274;SDS011;1649;53.672;10.064;2022-07-23T14:37:13;3.87;;;1.00;;
3274;SDS011;1649;53.672;10.064;2022-07-23T14:39:40;4.20;;;1.10;;
3274;SDS011;1649;53.672;10.064;2022-07-23T14:42:07;4.90;;;1.00;;
3274;SDS011;1649;53.672;10.064;2022-07-23T14:44:33;3.90;;;1.10;;
3274;SDS011;1649;53.672;10.064;2022-07-23T14:46:59;3.30;;;0.87;;
3274;SDS011;1649;53.672;10.064;2022-07-23T14:49:25;3.20;;;1.00;;
3274;SDS011;1649;53.672;10.064;2022-07-23T14:51:51;4.50;;;0.90;;
3274;SDS011;1649;53.672;10.064;2022-07-23T14:54:17;4.03;;;1.20;;
3274;SDS011;1649;53.672;10.064;2022-07-23T14:56:43;4.50;;;1.10;;
3274;SDS011;1649;53.672;10.064;2022-07-23T14:59:08;4.17;;;1.00;;
3274;SDS011;1649;53.672;10.064;2022-07-23T15:01:34;3.70;;;1.13;;
3274;SDS011;1649;53.672;10.064;2022-07-23T15:04:00;5.33;;;1.30;;
3274;SDS011;1649;53.672;10.064;2022-07-23T15:06:25;3.30;;;1.00;;
3274;SDS011;1649;53.672;10.064;2022-07-23T15:08:51;3.77;;;1.03;;
3274;SDS011;1649;53.672;10.064;2022-07-23T15:11:17;3.83;;;1.20;;
3274;SDS011;1649;53.672;10.064;2022-07-23T15:13:42;3.30;;;1.00;;
3274;SDS011;1649;53.672;10.064;2022-07-23T15:16:08;3.93;;;1.20;;
3274;SDS011;1649;53.672;10.064;2022-07-23T15:18:34;3.70;;;1.20;;
3274;SDS011;1649;53.672;10.064;2022-07-23T15:21:00;4.80;;;1.13;;
3274;SDS011;1649;53.672;10.064;2022-07-23T15:23:25;3.47;;;1.03;;
3274;SDS011;1649;53.672;10.064;2022-07-23T15:25:51;4.13;;;1.00;;
3274;SDS011;1649;53.672;10.064;2022-07-23T15:28:18;5.60;;;1.30;;
3274;SDS011;1649;53.672;10.064;2022-07-23T15:30:44;4.30;;;1.17;;
3274;SDS011;1649;53.672;10.064;2022-07-23T15:33:09;3.50;;;1.00;;
3274;SDS011;1649;53.672;10.064;2022-07-23T15:35:35;3.83;;;1.20;;
3274;SDS011;1649;53.672;10.064;2022-07-23T15:38:00;3.23;;;1.10;;
3274;SDS011;1649;53.672;10.064;2022-07-23T15:40:26;4.57;;;1.17;;
3274;SDS011;1649;53.672;10.064;2022-07-23T15:42:51;3.87;;;1.20;;